New Egypt, NJ (08533)

8:25 AM EST on February 11, 2016 (GMT -0500)
In the Village of | | Change Station
CLOSE
Current Station
Personal Weather Station
Location: New Egypt, NJ
Elevation: 85 ft
Nearby Weather Stations

Elev 85 ft 40.07 °N, 74.53 °W | Updated 7 seconds ago

Partly Cloudy
Partly Cloudy
23.2 °F
Feels Like 23 °F
N
0.9
Wind Variable Wind from NW
Gusts 2.5 mph

Today
High -- | Low -- °F
--% Chance of Precip.
Yesterday
High -- | Low -- °F
Precip. -- in
Pressure 29.93 in
Visibility 10.0 miles
Clouds Scattered Clouds 4500 ft
Scattered Clouds 5500 ft
Windchill 23 °F
Dew Point -5 °F
Humidity 28%
Rainfall 0.00 in
Snow Depth Not available.
6:56 AM 5:28 PM
Waxing Crescent, 12% visible
METAR KWRI 111258Z AUTO 29008KT 10SM SCT045 SCT055 M05/M11 A2992 RMK AO2 SLP133 T10541112
Pressure 29.93 in
Visibility 10.0 miles
Clouds Scattered Clouds 4500 ft
Scattered Clouds 5500 ft
Windchill 23 °F
Dew Point -5 °F
Humidity 28%
Rainfall 0.00 in
Snow Depth Not available.
6:56 AM 5:28 PM
Waxing Crescent, 12% visible
METAR KWRI 111258Z AUTO 29008KT 10SM SCT045 SCT055 M05/M11 A2992 RMK AO2 SLP133 T10541112

10-Day Weather Forecast

Almanac

Astronomy

Feb. 11, 2016 Rise Set
Actual Time
Civil Twilight
Nautical Twilight
Astronomical Twilight
Moon
Length of Visible Light
Length of Day
Tomorrow will be .
, % of the Moon is Illuminated

Today's Extremes

State Highs State Lows

Community

WunderPhotos

Upload Photos

1,892,041 photos uploaded!

WunderBlog® & News

Nearby

Air Quality

  Air Quality AQ Index Pollutant
Not available.

Snow Depth

Station Depth Elevation

Earthquake Activity

City Distance Mag. Time & Date
Minimum magnitude displayed is 2.5.

Coastal Water Temperatures

Place Temperature

Stations

Nearby Weather Stations

Station Location Temp. Windchill Dew Point Humidity Wind Precip. Elev Updated Type
                   

Watches & Warnings

There are currently no watches in effect.